Extreme weather reports worldwide

High gusts

Station
 
Location
 
Name
 
Wind
Knots
Gust
Knots
Vis
SM
Temp/Dew
C
Baro
inHg
METAR
 
KUT UGKO Kutaisi, GE Kopitnari Airport 29 43 18/11 29.85 UGKO 250730Z 07029G43KT 9999 SCT038 18/11 Q1011 NOSIG
KEF BIKF Reykjavík, IS Keflavik International Airport 30 42 9/5 29.70 BIKF 250730Z 14030G42KT 9999 BKN017 09/05 Q1006
MHV KMHV Mojave, US Mojave Airport 23 41 14/2 29.82 KMHV 250720Z AUTO 25023G41KT 10SM FEW019 SCT025 SCT032 14/02 A2982 RMK AO2
AAQ URKA Anapa, RU Anapa Vityazevo Airport 29 41 22/9 29.91 URKA 250730Z 09015G21MPS CAVOK 22/09 Q1013 R03/010070 TEMPO 06017G25MPS RMK QFE756/1008
PHO PAPO Point Hope, US Point Hope Airport 32 38 -1/-3 29.93 PAPO 250656Z AUTO 03032G38KT 10SM CLR M02/M04 A2993 RMK AO2 PK WND 03039/0636 SLP135 T10171039 FZRANO

Station
 
Location
 
Name
 
Wind
Knots
Gust
Knots
Vis
SM
Temp/Dew
C
Baro
inHg
METAR
 
KVD UBBG Ganja, AZ Ganja Airport 26 38 20/10 30.03 UBBG 250730Z 11026G38KT 9999 SCT066 20/10 Q1017 NOSIG
KRR URKK Krasnodar, RU Krasnodar Pashkovsky International Airport 25 37 21/9 29.97 URKK 250730Z 09013G19MPS 9999 FEW/// 21/09 Q1015 R05R/CLRD70 NOSIG RMK QFE758
KC83 28 37 13/9 29.84 KC83 250735Z AUTO 23028G37KT 10SM CLR 13/09 A2984 RMK AO2
RKV BIRK Reykjavik, IS Reykjavik Airport 25 36 10/7 29.70 BIRK 250700Z 14025G36KT 9999 SCT017 10/07 Q1006
ROV URRP Rostov-on-Don, RU Platov International Airport 23 35 20/1 30.27 URRP 250730Z 10012G18MPS CAVOK 20/01 Q1025 R05/CLRD70 TEMPO 12016G26MPS RMK QFE764/1019
UBN ZMCK Ulaanbaatar, MN Ulaanbaatar International Airport 16 35 16/-2 29.97 ZMCK 250730Z 34008G18MPS 310V020 9999 FEW030CB SCT033 16/M02 Q1015 NOSIG RMK QFE646.4 28 MOP
KCPW 25 35 2/-8 30.20 KCPW 250735Z AUTO 22025G35KT 10SM CLR 02/M08 A3020 RMK AO2
KVC PAVC King Cove, US King Cove Airport 20 33 4 4/3 29.82 PAVC 250727Z AUTO 26020G33KT 4SM -RA BR OVC015 04/03 A2982 RMK AO2 PK WND 29033/0720 P0000
URMG Grozny, RU Khankala Air Base 23 33 17/11 30.12 URMG 250730Z 10012G17MPS 9999 SCT021CB BKN032 17/11 Q1020 R08/090070 TEMPO 0800 BLDU RMK QFE750/1001
BVG ENBV Berlevåg, NO Berlevåg Airport 20 33 3/1 30.21 ENBV 250750Z AUTO 32020G33KT 9999 FEW016/// SCT027/// OVC044/// 03/01 Q1023
DUT PADU Unalaska, US Unalaska Airport 24 32 5/1 30.01 PADU 250656Z AUTO 30024G32KT 10SM -RA FEW029 OVC038 05/01 A3001 RMK AO2 PK WND 31032/0653 RAE22B48 SLP167 P0000 T00500011
HVG ENHV Honningsvåg, NO Valan Airport 21 32 3/1 30.27 ENHV 250750Z AUTO 30021G32KT 9999 -DZRA SQ FEW008/// BKN015/// OVC032/// 03/01 Q1025 REDZ
ESL URWI Elista, RU Elista Airport 21 31 19/3 30.30 URWI 250730Z 11011G16MPS 080V140 CAVOK 19/03 Q1026 R09/010065 NOSIG
KTS PFKT Brevig Mission, US Brevig Mission Airport 25 30 2/0 29.80 PFKT 250656Z AUTO 02025G30KT 10SM CLR 03/00 A2980 RMK AO2 PK WND 02032/0600 SLP092 T00280000
ACC DGAA Accra, GH Kotoka International Airport 18 30 0.25 22/22 29.91 DGAA 250700Z 05018G30KT 020V080 0400 +TSRA BKN008 BKN013 FEW028CB 22/22 Q1013 TEMPO 5000 TSRA
KVWU Waskish, US Waskish Municipal Airport 17 30 4 6/4 29.49 KVWU 250735Z AUTO 24017G30KT 4SM -DZ SCT011 OVC015 06/04 A2949 RMK AO2
PAUT Akutan, US Akun Airport 26 30 5 3/2 29.94 PAUT 250735Z AUTO 29026G30KT 5SM -DZ OVC023 03/02 A2994 RMK AO2
IPL KIPL Imperial, US Imperial County Airport 21 29 19/7 29.76 KIPL 250753Z AUTO 27021G29KT 10SM -RA CLR 19/08 A2976 RMK AO2 PK WND 25029/0733 SLP078 P0000 T01940078 403390183 $
TPH KTPH Tonopah, US Tonopah Airport 18 28 14/1 29.82 KTPH 250656Z AUTO 03018G28KT 10SM OVC100 14/02 A2982 RMK AO2 PK WND 31038/0558 WSHFT 0628 SLP040 T01440017
VVI SLVR Santa Cruz, BO Viru Viru International Airport 17 28 16/10 30.15 SLVR 250700Z 19017G28KT 9999 OVC070 16/10 Q1021
CDB PACD Cold Bay, US Cold Bay Airport 22 28 3/2 29.81 PACD 250753Z AUTO 27022G28KT 10SM OVC013 04/03 A2981 RMK AO2 PK WND 28036/0705 RAE36 SLP097 P0001 T00390028 TSNO
OGG PHOG Kahului, US Kahului Airport 14 27 23/17 30.09 PHOG 250654Z 07014G27KT 10SM CLR 23/18 A3009 RMK AO2 PK WND 07027/0620 SLP194 T02330178
HKD RJCH Hakodate, JP Hakodate Airport 15 27 16/6 29.94 RJCH 250709Z 29015G27KT 9999 FEW020 SCT040 16/06 Q1014 RMK 1CU020 3CU040 A2997
UOX KUOX Oxford, US University Oxford Airport 14 27 8 21/20 29.79 KUOX 250735Z AUTO 26014G27KT 220V290 8SM FEW038 SCT050 BKN065 21/20 A2979 RMK AO2 PWINO TSNO
LKL ENNA Lakselv, NO Banak Airport 14 27 6/-3 30.32 ENNA 250750Z 29014G27KT 250V330 9999 FEW022 SCT037 BKN051 06/M03 Q1027 RMK WIND 1800FT 30026G38KT
KNSI San Nicolas Island, US San Nicolas Island Nolf Airport 16 26 7 11/10 29.97 KNSI 250653Z AUTO 31016G26KT 7SM OVC003 12/10 A2997 RMK AO2 PK WND 30032/0604 SLP145 T01170100 $
DLH KDLH Duluth, US Duluth International Airport 19 26 7/1 29.61 KDLH 250655Z 24019G26KT 10SM OVC029 07/02 A2961 RMK AO2 PK WND 22032/0633 SLP039 T00720017
RDR KRDR Grand Forks, US Grand Forks Air Force Base 19 26 4/1 29.54 KRDR 250655Z AUTO 28019G26KT 10SM BKN015 OVC065 04/02 A2954 RMK AO2 PK WND 24028/05 RAE02DZB02E10 SLP013 P0000 T00420016 $
FKS RJSF Sukagawa, JP Fukushima Airport 16 26 18/7 29.97 RJSF 250705Z 32016G26KT 300V360 9999 FEW040 18/07 Q1015 RMK 1CU040 A2999
KDRP Colt, US Delta Regional Airport 18 26 23/18 29.75 KDRP 250735Z AUTO 24018G26KT 10SM FEW090 23/18 A2975 RMK AO2
ANC PANC Anchorage, US Ted Stevens Anchorage International Airport 13 26 8/0 29.61 PANC 250753Z 14013G26KT 070V160 10SM SCT038 BKN050 OVC090 09/01 A2961 RMK AO2 PK WND 14026/0752 SLP026 T00890006
SNP PASN St Paul Island, US St Paul Island Airport 16 26 4 1/1 29.90 PASN 250753Z AUTO 31016G26KT 4SM BR OVC005 02/01 A2990 RMK AO2 PK WND 32027/0703 SLP126 T00170011 TSNO
KGAF Grafton, US Hutson Field 18 26 4/4 29.53 KGAF 250755Z AUTO 27018G26KT 10SM SCT055 04/04 A2953 RMK AO2
MKK PHMK Kaunakakai, US Molokai Airport 10 25 22/17 30.11 PHMK 250654Z AUTO 06010G25KT 10SM BKN055 23/18 A3011 RMK AO2 SLP198 T02280178 TSNO
RNO KRNO Reno, US Reno Tahoe International Airport 10 25 13/0 29.88 KRNO 250655Z 28010G25KT 10SM FEW080 SCT160 14/00 A2988 RMK AO2 SLP075 T01390000 $
KNXP Twentynine Palms, US Twentynine Palms (Self) Airport 17 25 20/3 29.84 KNXP 250656Z AUTO 30017G25KT 10SM CLR 20/04 A2984 RMK AO2 SLP071 T02000039
TVF KTVF Thief River Falls, US Thief River Falls Regional Airport 20 25 9 3/2 29.51 KTVF 250656Z AUTO 26020G25KT 9SM -RA OVC007 03/03 A2951 RMK AO2 PK WND 26027/0644 SLP003 P0002 T00330028
WJF KWJF Lancaster, US General WM J Fox Airfield 15 25 12/7 29.87 KWJF 250656Z AUTO 24015G25KT 10SM CLR 12/07 A2987 RMK AO2 PK WND 25026/0643 SLP108 T01220072
POM AYPY Port Moresby, PG Port Moresby Jacksons International Airport 15 25 30/25 29.73 AYPY 250700Z 15015G25KT 9999 FUHZ FEW025 SCT035 30/25 Q1007
CWLY 10 25 9 13/6 29.66 CWLY 250700Z AUTO 21010G25KT 170V240 9SM BKN110 BKN130 13/06 A2966 RMK SLP048 DENSITY ALT 1000FT
CWPO 20 25 0/0 CWPO 250700Z AUTO 32020G25KT 01/01 RMK AO1 PK WND 32025/0659 SLP028 T00080005 51003
UGAM 15 25 18/6 30.03 UGAM 250730Z 12015G25KT 080V150 9999 FEW040 BKN060 18/06 Q1017
TRZ VOTR Tiruchirappally, IN Tiruchirapally Civil Airport Airport 15 25 3.11 35/26 29.59 VOTR 250730Z 28015G25KT 5000 HZ FEW016 BKN100 35/26 Q1002 NOSIG
KAIB Nucla, US Hopkins Field 17 25 18/-9 29.86 KAIB 250735Z AUTO 19017G25KT 10SM CLR 19/M09 A2986 RMK AO2 T01851091
BJI KBJI Bemidji, US Bemidji Regional Airport 13 25 3/3 29.55 KBJI 250735Z AUTO 24013G25KT 10SM OVC011 03/03 A2955 RMK AO2 T00330032